sensor_id;sensor_type;location;lat;lon;timestamp;P1;durP1;ratioP1;P2;durP2;ratioP2
18320;SDS011;54904;54.350;18.664;2023-03-23T00:01:08;13.93;;;9.27;;
18320;SDS011;54904;54.350;18.664;2023-03-23T00:03:38;11.67;;;8.50;;
18320;SDS011;54904;54.350;18.664;2023-03-23T00:06:07;12.97;;;7.97;;
18320;SDS011;54904;54.350;18.664;2023-03-23T00:08:36;8.17;;;6.70;;
18320;SDS011;54904;54.350;18.664;2023-03-23T00:11:10;8.33;;;6.03;;
18320;SDS011;54904;54.350;18.664;2023-03-23T00:13:40;6.67;;;5.50;;
18320;SDS011;54904;54.350;18.664;2023-03-23T00:16:08;10.17;;;6.17;;
18320;SDS011;54904;54.350;18.664;2023-03-23T00:18:42;7.90;;;5.57;;
18320;SDS011;54904;54.350;18.664;2023-03-23T00:21:12;6.23;;;5.53;;
18320;SDS011;54904;54.350;18.664;2023-03-23T00:23:39;11.00;;;7.50;;
18320;SDS011;54904;54.350;18.664;2023-03-23T00:26:10;14.63;;;8.27;;
18320;SDS011;54904;54.350;18.664;2023-03-23T00:28:37;20.90;;;11.30;;
18320;SDS011;54904;54.350;18.664;2023-03-23T00:31:06;15.70;;;9.70;;
18320;SDS011;54904;54.350;18.664;2023-03-23T00:33:35;12.00;;;7.40;;
18320;SDS011;54904;54.350;18.664;2023-03-23T00:36:06;12.00;;;7.97;;
18320;SDS011;54904;54.350;18.664;2023-03-23T00:38:35;13.30;;;8.03;;
18320;SDS011;54904;54.350;18.664;2023-03-23T00:41:03;11.90;;;7.13;;
18320;SDS011;54904;54.350;18.664;2023-03-23T00:43:32;10.03;;;6.37;;
18320;SDS011;54904;54.350;18.664;2023-03-23T00:46:01;13.87;;;8.20;;
18320;SDS011;54904;54.350;18.664;2023-03-23T00:48:34;13.27;;;8.43;;
18320;SDS011;54904;54.350;18.664;2023-03-23T00:51:06;11.23;;;7.10;;
18320;SDS011;54904;54.350;18.664;2023-03-23T00:53:38;9.10;;;6.00;;
18320;SDS011;54904;54.350;18.664;2023-03-23T00:56:06;7.20;;;5.53;;
18320;SDS011;54904;54.350;18.664;2023-03-23T00:58:35;8.37;;;5.80;;
18320;SDS011;54904;54.350;18.664;2023-03-23T01:01:02;7.30;;;6.20;;
18320;SDS011;54904;54.350;18.664;2023-03-23T01:03:30;10.93;;;7.00;;
18320;SDS011;54904;54.350;18.664;2023-03-23T01:05:58;8.70;;;6.23;;
18320;SDS011;54904;54.350;18.664;2023-03-23T01:08:33;6.47;;;5.40;;
18320;SDS011;54904;54.350;18.664;2023-03-23T01:11:04;6.77;;;5.43;;
18320;SDS011;54904;54.350;18.664;2023-03-23T01:13:33;8.43;;;6.27;;
18320;SDS011;54904;54.350;18.664;2023-03-23T01:16:00;7.33;;;6.37;;
18320;SDS011;54904;54.350;18.664;2023-03-23T01:18:28;10.93;;;7.67;;
18320;SDS011;54904;54.350;18.664;2023-03-23T01:20:55;8.77;;;6.80;;
18320;SDS011;54904;54.350;18.664;2023-03-23T01:23:22;6.60;;;5.37;;
18320;SDS011;54904;54.350;18.664;2023-03-23T01:25:49;7.53;;;5.17;;
18320;SDS011;54904;54.350;18.664;2023-03-23T01:28:21;6.10;;;5.13;;
18320;SDS011;54904;54.350;18.664;2023-03-23T01:30:48;8.00;;;5.73;;
18320;SDS011;54904;54.350;18.664;2023-03-23T01:33:15;5.23;;;4.70;;
18320;SDS011;54904;54.350;18.664;2023-03-23T01:35:42;5.63;;;4.30;;
18320;SDS011;54904;54.350;18.664;2023-03-23T01:38:09;4.77;;;4.00;;
18320;SDS011;54904;54.350;18.664;2023-03-23T01:40:37;6.50;;;4.70;;
18320;SDS011;54904;54.350;18.664;2023-03-23T01:43:07;4.63;;;4.10;;
18320;SDS011;54904;54.350;18.664;2023-03-23T01:45:40;6.27;;;4.93;;
18320;SDS011;54904;54.350;18.664;2023-03-23T01:48:09;9.67;;;6.60;;
18320;SDS011;54904;54.350;18.664;2023-03-23T01:50:43;6.40;;;5.03;;
18320;SDS011;54904;54.350;18.664;2023-03-23T01:53:17;8.57;;;6.23;;
18320;SDS011;54904;54.350;18.664;2023-03-23T01:55:46;12.73;;;8.00;;
18320;SDS011;54904;54.350;18.664;2023-03-23T01:58:17;19.43;;;11.67;;
18320;SDS011;54904;54.350;18.664;2023-03-23T02:00:52;16.03;;;9.27;;
18320;SDS011;54904;54.350;18.664;2023-03-23T02:03:21;18.73;;;10.33;;
18320;SDS011;54904;54.350;18.664;2023-03-23T02:05:50;13.27;;;8.97;;
18320;SDS011;54904;54.350;18.664;2023-03-23T02:08:27;13.53;;;8.20;;
18320;SDS011;54904;54.350;18.664;2023-03-23T02:10:55;10.00;;;6.57;;
18320;SDS011;54904;54.350;18.664;2023-03-23T02:13:22;8.40;;;5.70;;
18320;SDS011;54904;54.350;18.664;2023-03-23T02:15:53;6.67;;;5.30;;
18320;SDS011;54904;54.350;18.664;2023-03-23T02:18:31;7.07;;;5.30;;
18320;SDS011;54904;54.350;18.664;2023-03-23T02:21:39;6.53;;;5.07;;
18320;SDS011;54904;54.350;18.664;2023-03-23T02:24:46;8.70;;;6.10;;
18320;SDS011;54904;54.350;18.664;2023-03-23T02:27:20;7.10;;;4.80;;
18320;SDS011;54904;54.350;18.664;2023-03-23T02:30:10;8.27;;;6.07;;
18320;SDS011;54904;54.350;18.664;2023-03-23T02:32:56;11.40;;;6.97;;
18320;SDS011;54904;54.350;18.664;2023-03-23T02:35:48;10.53;;;7.17;;
18320;SDS011;54904;54.350;18.664;2023-03-23T02:38:20;11.63;;;6.37;;
18320;SDS011;54904;54.350;18.664;2023-03-23T02:40:53;10.93;;;7.77;;
18320;SDS011;54904;54.350;18.664;2023-03-23T02:43:23;10.53;;;7.23;;
18320;SDS011;54904;54.350;18.664;2023-03-23T02:45:52;12.93;;;7.77;;
18320;SDS011;54904;54.350;18.664;2023-03-23T02:48:24;10.37;;;7.00;;
18320;SDS011;54904;54.350;18.664;2023-03-23T02:50:55;11.70;;;7.73;;
18320;SDS011;54904;54.350;18.664;2023-03-23T02:53:25;14.03;;;7.70;;
18320;SDS011;54904;54.350;18.664;2023-03-23T02:55:54;12.40;;;6.90;;
18320;SDS011;54904;54.350;18.664;2023-03-23T02:58:27;7.80;;;5.80;;
18320;SDS011;54904;54.350;18.664;2023-03-23T03:00:57;8.80;;;6.60;;
18320;SDS011;54904;54.350;18.664;2023-03-23T03:03:28;9.87;;;7.17;;
18320;SDS011;54904;54.350;18.664;2023-03-23T03:05:59;8.23;;;6.00;;
18320;SDS011;54904;54.350;18.664;2023-03-23T03:08:37;9.70;;;6.30;;
18320;SDS011;54904;54.350;18.664;2023-03-23T03:11:12;9.43;;;6.80;;
18320;SDS011;54904;54.350;18.664;2023-03-23T03:13:44;13.50;;;7.27;;
18320;SDS011;54904;54.350;18.664;2023-03-23T03:16:19;11.20;;;6.60;;
18320;SDS011;54904;54.350;18.664;2023-03-23T03:18:54;7.03;;;5.60;;
18320;SDS011;54904;54.350;18.664;2023-03-23T03:21:25;5.63;;;5.07;;
18320;SDS011;54904;54.350;18.664;2023-03-23T03:23:58;6.70;;;5.37;;
18320;SDS011;54904;54.350;18.664;2023-03-23T03:26:27;8.43;;;5.90;;
18320;SDS011;54904;54.350;18.664;2023-03-23T03:29:10;9.33;;;6.57;;
18320;SDS011;54904;54.350;18.664;2023-03-23T03:31:43;9.03;;;6.20;;
18320;SDS011;54904;54.350;18.664;2023-03-23T03:34:17;6.87;;;5.30;;
18320;SDS011;54904;54.350;18.664;2023-03-23T03:36:47;5.83;;;4.43;;
18320;SDS011;54904;54.350;18.664;2023-03-23T03:39:16;6.30;;;4.80;;
18320;SDS011;54904;54.350;18.664;2023-03-23T03:41:45;4.57;;;3.90;;
18320;SDS011;54904;54.350;18.664;2023-03-23T03:44:12;7.70;;;5.83;;
18320;SDS011;54904;54.350;18.664;2023-03-23T03:46:40;8.30;;;5.40;;
18320;SDS011;54904;54.350;18.664;2023-03-23T03:49:08;8.70;;;6.43;;
18320;SDS011;54904;54.350;18.664;2023-03-23T03:51:39;11.10;;;6.67;;
18320;SDS011;54904;54.350;18.664;2023-03-23T03:54:13;7.03;;;5.03;;
18320;SDS011;54904;54.350;18.664;2023-03-23T03:56:41;11.60;;;6.83;;
18320;SDS011;54904;54.350;18.664;2023-03-23T03:59:30;9.67;;;6.13;;
18320;SDS011;54904;54.350;18.664;2023-03-23T04:02:30;7.83;;;6.00;;
18320;SDS011;54904;54.350;18.664;2023-03-23T04:04:57;9.60;;;6.10;;
18320;SDS011;54904;54.350;18.664;2023-03-23T04:07:25;9.03;;;5.90;;
18320;SDS011;54904;54.350;18.664;2023-03-23T04:09:55;6.03;;;5.10;;
18320;SDS011;54904;54.350;18.664;2023-03-23T04:12:23;8.13;;;5.50;;
18320;SDS011;54904;54.350;18.664;2023-03-23T04:14:56;8.53;;;5.90;;
18320;SDS011;54904;54.350;18.664;2023-03-23T04:17:29;7.97;;;5.40;;
18320;SDS011;54904;54.350;18.664;2023-03-23T04:19:56;8.17;;;6.17;;
18320;SDS011;54904;54.350;18.664;2023-03-23T04:22:27;7.47;;;5.37;;
18320;SDS011;54904;54.350;18.664;2023-03-23T04:24:58;7.83;;;5.40;;
18320;SDS011;54904;54.350;18.664;2023-03-23T04:27:28;6.23;;;4.37;;
18320;SDS011;54904;54.350;18.664;2023-03-23T04:29:58;6.73;;;5.40;;
18320;SDS011;54904;54.350;18.664;2023-03-23T04:32:38;8.90;;;5.43;;
18320;SDS011;54904;54.350;18.664;2023-03-23T04:35:07;8.10;;;5.70;;
18320;SDS011;54904;54.350;18.664;2023-03-23T04:37:44;5.97;;;4.90;;
18320;SDS011;54904;54.350;18.664;2023-03-23T04:40:14;4.90;;;3.93;;
18320;SDS011;54904;54.350;18.664;2023-03-23T04:42:50;9.20;;;5.43;;
18320;SDS011;54904;54.350;18.664;2023-03-23T04:45:34;7.13;;;5.70;;
18320;SDS011;54904;54.350;18.664;2023-03-23T04:48:03;7.67;;;5.87;;
18320;SDS011;54904;54.350;18.664;2023-03-23T04:50:40;7.00;;;4.83;;
18320;SDS011;54904;54.350;18.664;2023-03-23T04:53:18;6.63;;;4.93;;
18320;SDS011;54904;54.350;18.664;2023-03-23T04:55:47;6.17;;;4.93;;
18320;SDS011;54904;54.350;18.664;2023-03-23T04:58:17;8.03;;;5.17;;
18320;SDS011;54904;54.350;18.664;2023-03-23T05:01:07;8.27;;;5.03;;
18320;SDS011;54904;54.350;18.664;2023-03-23T05:03:48;10.17;;;6.13;;
18320;SDS011;54904;54.350;18.664;2023-03-23T05:06:15;7.13;;;5.43;;
18320;SDS011;54904;54.350;18.664;2023-03-23T05:08:44;6.90;;;5.37;;
18320;SDS011;54904;54.350;18.664;2023-03-23T05:11:11;7.07;;;4.90;;
18320;SDS011;54904;54.350;18.664;2023-03-23T05:13:41;8.37;;;5.53;;
18320;SDS011;54904;54.350;18.664;2023-03-23T05:16:10;7.80;;;5.40;;
18320;SDS011;54904;54.350;18.664;2023-03-23T05:18:39;7.70;;;5.63;;
18320;SDS011;54904;54.350;18.664;2023-03-23T05:21:10;5.50;;;4.20;;
18320;SDS011;54904;54.350;18.664;2023-03-23T05:23:40;11.50;;;5.93;;
18320;SDS011;54904;54.350;18.664;2023-03-23T05:26:18;7.17;;;5.20;;
18320;SDS011;54904;54.350;18.664;2023-03-23T05:28:49;8.00;;;5.00;;
18320;SDS011;54904;54.350;18.664;2023-03-23T05:31:23;4.77;;;4.00;;
18320;SDS011;54904;54.350;18.664;2023-03-23T05:33:51;7.60;;;4.60;;
18320;SDS011;54904;54.350;18.664;2023-03-23T05:36:25;9.37;;;5.00;;
18320;SDS011;54904;54.350;18.664;2023-03-23T05:39:22;10.70;;;5.80;;
18320;SDS011;54904;54.350;18.664;2023-03-23T05:42:09;8.80;;;5.83;;
18320;SDS011;54904;54.350;18.664;2023-03-23T05:44:46;7.43;;;4.60;;
18320;SDS011;54904;54.350;18.664;2023-03-23T05:47:14;5.70;;;4.57;;
18320;SDS011;54904;54.350;18.664;2023-03-23T05:49:48;8.00;;;5.27;;
18320;SDS011;54904;54.350;18.664;2023-03-23T05:52:17;8.23;;;5.47;;
18320;SDS011;54904;54.350;18.664;2023-03-23T05:54:46;7.17;;;4.97;;
18320;SDS011;54904;54.350;18.664;2023-03-23T05:57:16;6.40;;;4.10;;
18320;SDS011;54904;54.350;18.664;2023-03-23T05:59:50;7.23;;;5.13;;
18320;SDS011;54904;54.350;18.664;2023-03-23T06:02:21;8.87;;;4.93;;
18320;SDS011;54904;54.350;18.664;2023-03-23T06:04:51;10.97;;;6.60;;
18320;SDS011;54904;54.350;18.664;2023-03-23T06:07:27;13.67;;;6.80;;
18320;SDS011;54904;54.350;18.664;2023-03-23T06:10:01;10.70;;;6.13;;
18320;SDS011;54904;54.350;18.664;2023-03-23T06:12:37;9.37;;;6.10;;
18320;SDS011;54904;54.350;18.664;2023-03-23T06:15:19;12.53;;;6.50;;
18320;SDS011;54904;54.350;18.664;2023-03-23T06:18:06;9.67;;;5.73;;
18320;SDS011;54904;54.350;18.664;2023-03-23T06:20:47;12.20;;;6.77;;
18320;SDS011;54904;54.350;18.664;2023-03-23T06:23:43;9.03;;;5.57;;
18320;SDS011;54904;54.350;18.664;2023-03-23T06:26:11;8.57;;;5.70;;
18320;SDS011;54904;54.350;18.664;2023-03-23T06:28:44;10.73;;;6.47;;
18320;SDS011;54904;54.350;18.664;2023-03-23T06:31:11;7.47;;;4.97;;
18320;SDS011;54904;54.350;18.664;2023-03-23T06:33:40;11.50;;;5.53;;
18320;SDS011;54904;54.350;18.664;2023-03-23T06:36:39;11.00;;;5.77;;
18320;SDS011;54904;54.350;18.664;2023-03-23T06:39:16;7.13;;;5.30;;
18320;SDS011;54904;54.350;18.664;2023-03-23T06:41:56;12.33;;;6.77;;
18320;SDS011;54904;54.350;18.664;2023-03-23T06:44:26;10.47;;;5.37;;
18320;SDS011;54904;54.350;18.664;2023-03-23T06:46:53;13.47;;;6.50;;
18320;SDS011;54904;54.350;18.664;2023-03-23T06:49:26;9.77;;;6.13;;
18320;SDS011;54904;54.350;18.664;2023-03-23T06:52:02;11.47;;;5.93;;
18320;SDS011;54904;54.350;18.664;2023-03-23T06:54:31;8.87;;;5.30;;
18320;SDS011;54904;54.350;18.664;2023-03-23T06:57:00;8.77;;;5.20;;
18320;SDS011;54904;54.350;18.664;2023-03-23T06:59:29;9.83;;;6.40;;
18320;SDS011;54904;54.350;18.664;2023-03-23T07:01:57;12.13;;;6.93;;
18320;SDS011;54904;54.350;18.664;2023-03-23T07:04:24;14.13;;;6.77;;
18320;SDS011;54904;54.350;18.664;2023-03-23T07:07:00;7.47;;;5.37;;
18320;SDS011;54904;54.350;18.664;2023-03-23T07:09:32;8.47;;;5.57;;
18320;SDS011;54904;54.350;18.664;2023-03-23T07:11:59;9.93;;;5.10;;
18320;SDS011;54904;54.350;18.664;2023-03-23T07:14:33;8.93;;;5.27;;
18320;SDS011;54904;54.350;18.664;2023-03-23T07:17:00;5.13;;;4.33;;
18320;SDS011;54904;54.350;18.664;2023-03-23T07:19:30;10.17;;;4.83;;
18320;SDS011;54904;54.350;18.664;2023-03-23T07:21:58;10.53;;;5.97;;
18320;SDS011;54904;54.350;18.664;2023-03-23T07:24:25;7.17;;;5.27;;
18320;SDS011;54904;54.350;18.664;2023-03-23T07:27:11;13.33;;;5.77;;
18320;SDS011;54904;54.350;18.664;2023-03-23T07:29:40;7.10;;;5.47;;
18320;SDS011;54904;54.350;18.664;2023-03-23T07:32:14;7.63;;;4.63;;
18320;SDS011;54904;54.350;18.664;2023-03-23T07:34:42;8.03;;;5.07;;
18320;SDS011;54904;54.350;18.664;2023-03-23T07:37:32;5.97;;;4.03;;
18320;SDS011;54904;54.350;18.664;2023-03-23T07:40:01;5.93;;;3.67;;
18320;SDS011;54904;54.350;18.664;2023-03-23T07:42:40;9.57;;;4.40;;
18320;SDS011;54904;54.350;18.664;2023-03-23T07:45:11;4.97;;;3.57;;
18320;SDS011;54904;54.350;18.664;2023-03-23T07:47:41;4.73;;;3.30;;
18320;SDS011;54904;54.350;18.664;2023-03-23T07:50:08;6.67;;;3.20;;
18320;SDS011;54904;54.350;18.664;2023-03-23T07:52:40;3.37;;;3.00;;
18320;SDS011;54904;54.350;18.664;2023-03-23T07:55:10;3.93;;;3.50;;
18320;SDS011;54904;54.350;18.664;2023-03-23T07:58:03;2.87;;;2.57;;
18320;SDS011;54904;54.350;18.664;2023-03-23T08:00:35;6.80;;;3.70;;
18320;SDS011;54904;54.350;18.664;2023-03-23T08:03:07;4.90;;;3.00;;
18320;SDS011;54904;54.350;18.664;2023-03-23T08:06:07;2.97;;;2.77;;
18320;SDS011;54904;54.350;18.664;2023-03-23T08:08:46;3.70;;;3.20;;
18320;SDS011;54904;54.350;18.664;2023-03-23T08:11:49;3.43;;;2.97;;
18320;SDS011;54904;54.350;18.664;2023-03-23T08:14:53;6.37;;;4.00;;
18320;SDS011;54904;54.350;18.664;2023-03-23T08:17:57;4.90;;;3.60;;
18320;SDS011;54904;54.350;18.664;2023-03-23T08:20:46;7.00;;;3.97;;
18320;SDS011;54904;54.350;18.664;2023-03-23T08:23:26;4.60;;;3.73;;
18320;SDS011;54904;54.350;18.664;2023-03-23T08:26:09;5.67;;;3.67;;
18320;SDS011;54904;54.350;18.664;2023-03-23T08:28:49;5.83;;;3.53;;
18320;SDS011;54904;54.350;18.664;2023-03-23T08:31:43;4.60;;;3.17;;
18320;SDS011;54904;54.350;18.664;2023-03-23T08:34:28;8.37;;;4.03;;
18320;SDS011;54904;54.350;18.664;2023-03-23T08:37:02;6.53;;;3.80;;
18320;SDS011;54904;54.350;18.664;2023-03-23T08:39:30;7.27;;;3.67;;
18320;SDS011;54904;54.350;18.664;2023-03-23T08:42:26;6.97;;;3.57;;
18320;SDS011;54904;54.350;18.664;2023-03-23T08:45:23;6.57;;;3.60;;
18320;SDS011;54904;54.350;18.664;2023-03-23T08:48:03;8.17;;;3.70;;
18320;SDS011;54904;54.350;18.664;2023-03-23T08:51:03;3.40;;;2.97;;
18320;SDS011;54904;54.350;18.664;2023-03-23T08:53:38;4.43;;;3.13;;
18320;SDS011;54904;54.350;18.664;2023-03-23T08:56:24;5.87;;;3.70;;
18320;SDS011;54904;54.350;18.664;2023-03-23T08:59:12;6.00;;;3.03;;
18320;SDS011;54904;54.350;18.664;2023-03-23T09:02:01;4.13;;;2.63;;
18320;SDS011;54904;54.350;18.664;2023-03-23T09:04:36;3.40;;;2.50;;
18320;SDS011;54904;54.350;18.664;2023-03-23T09:07:24;3.47;;;2.87;;
18320;SDS011;54904;54.350;18.664;2023-03-23T09:09:51;3.40;;;2.80;;
18320;SDS011;54904;54.350;18.664;2023-03-23T09:12:18;3.30;;;2.30;;
18320;SDS011;54904;54.350;18.664;2023-03-23T09:14:45;3.17;;;2.77;;
18320;SDS011;54904;54.350;18.664;2023-03-23T09:17:12;2.10;;;1.90;;
18320;SDS011;54904;54.350;18.664;2023-03-23T09:19:39;6.00;;;3.17;;
18320;SDS011;54904;54.350;18.664;2023-03-23T09:22:07;2.50;;;2.30;;
18320;SDS011;54904;54.350;18.664;2023-03-23T09:24:36;4.90;;;2.60;;
18320;SDS011;54904;54.350;18.664;2023-03-23T09:27:03;4.73;;;2.80;;
18320;SDS011;54904;54.350;18.664;2023-03-23T09:29:31;5.47;;;2.87;;
18320;SDS011;54904;54.350;18.664;2023-03-23T09:31:58;4.03;;;2.20;;
18320;SDS011;54904;54.350;18.664;2023-03-23T09:34:27;5.47;;;3.17;;
18320;SDS011;54904;54.350;18.664;2023-03-23T09:36:54;7.30;;;3.10;;
18320;SDS011;54904;54.350;18.664;2023-03-23T09:39:22;3.23;;;2.67;;
18320;SDS011;54904;54.350;18.664;2023-03-23T09:41:58;3.50;;;2.30;;
18320;SDS011;54904;54.350;18.664;2023-03-23T09:44:37;4.20;;;2.77;;
18320;SDS011;54904;54.350;18.664;2023-03-23T09:47:15;4.37;;;2.93;;
18320;SDS011;54904;54.350;18.664;2023-03-23T09:49:48;3.90;;;3.30;;
18320;SDS011;54904;54.350;18.664;2023-03-23T09:52:20;4.97;;;3.57;;
18320;SDS011;54904;54.350;18.664;2023-03-23T09:54:48;4.17;;;3.60;;
18320;SDS011;54904;54.350;18.664;2023-03-23T09:57:20;3.17;;;2.80;;
18320;SDS011;54904;54.350;18.664;2023-03-23T09:59:54;3.00;;;2.70;;
18320;SDS011;54904;54.350;18.664;2023-03-23T10:02:38;4.03;;;2.80;;
18320;SDS011;54904;54.350;18.664;2023-03-23T10:05:24;2.60;;;2.33;;
18320;SDS011;54904;54.350;18.664;2023-03-23T10:07:57;4.30;;;2.50;;
18320;SDS011;54904;54.350;18.664;2023-03-23T10:10:31;2.93;;;2.63;;
18320;SDS011;54904;54.350;18.664;2023-03-23T10:13:09;3.43;;;2.30;;
18320;SDS011;54904;54.350;18.664;2023-03-23T10:15:42;3.57;;;2.33;;
18320;SDS011;54904;54.350;18.664;2023-03-23T10:18:12;2.57;;;2.20;;
18320;SDS011;54904;54.350;18.664;2023-03-23T10:20:46;2.80;;;2.27;;
18320;SDS011;54904;54.350;18.664;2023-03-23T10:23:24;4.63;;;2.93;;
18320;SDS011;54904;54.350;18.664;2023-03-23T10:26:10;2.97;;;2.40;;
18320;SDS011;54904;54.350;18.664;2023-03-23T10:28:48;4.73;;;2.23;;
18320;SDS011;54904;54.350;18.664;2023-03-23T10:31:19;2.33;;;2.07;;
18320;SDS011;54904;54.350;18.664;2023-03-23T10:33:52;3.00;;;1.97;;
18320;SDS011;54904;54.350;18.664;2023-03-23T10:36:24;2.00;;;1.90;;
18320;SDS011;54904;54.350;18.664;2023-03-23T10:38:59;3.37;;;1.83;;
18320;SDS011;54904;54.350;18.664;2023-03-23T10:41:29;2.20;;;2.00;;
18320;SDS011;54904;54.350;18.664;2023-03-23T10:43:58;2.30;;;2.10;;
18320;SDS011;54904;54.350;18.664;2023-03-23T10:46:29;3.07;;;2.00;;
18320;SDS011;54904;54.350;18.664;2023-03-23T10:49:06;3.10;;;1.70;;
18320;SDS011;54904;54.350;18.664;2023-03-23T10:51:41;1.80;;;1.70;;
18320;SDS011;54904;54.350;18.664;2023-03-23T10:54:11;2.60;;;1.70;;
18320;SDS011;54904;54.350;18.664;2023-03-23T10:56:38;1.90;;;1.80;;
18320;SDS011;54904;54.350;18.664;2023-03-23T10:59:13;2.53;;;1.70;;
18320;SDS011;54904;54.350;18.664;2023-03-23T11:01:48;4.90;;;1.47;;
18320;SDS011;54904;54.350;18.664;2023-03-23T11:04:22;1.37;;;1.27;;
18320;SDS011;54904;54.350;18.664;2023-03-23T11:06:52;1.50;;;1.40;;
18320;SDS011;54904;54.350;18.664;2023-03-23T11:09:21;2.33;;;1.40;;
18320;SDS011;54904;54.350;18.664;2023-03-23T11:12:01;1.40;;;1.30;;
18320;SDS011;54904;54.350;18.664;2023-03-23T11:14:30;1.70;;;1.60;;
18320;SDS011;54904;54.350;18.664;2023-03-23T11:17:00;1.40;;;1.30;;
18320;SDS011;54904;54.350;18.664;2023-03-23T11:19:29;1.50;;;1.40;;
18320;SDS011;54904;54.350;18.664;2023-03-23T11:21:59;2.17;;;1.80;;
18320;SDS011;54904;54.350;18.664;2023-03-23T11:24:33;1.43;;;1.33;;
18320;SDS011;54904;54.350;18.664;2023-03-23T11:27:03;1.00;;;1.00;;
18320;SDS011;54904;54.350;18.664;2023-03-23T11:29:33;1.60;;;1.20;;
18320;SDS011;54904;54.350;18.664;2023-03-23T11:32:09;3.57;;;1.50;;
18320;SDS011;54904;54.350;18.664;2023-03-23T11:34:40;2.27;;;1.50;;
18320;SDS011;54904;54.350;18.664;2023-03-23T11:37:09;3.53;;;2.20;;
18320;SDS011;54904;54.350;18.664;2023-03-23T11:39:47;2.67;;;2.10;;
18320;SDS011;54904;54.350;18.664;2023-03-23T11:42:20;2.07;;;1.83;;
18320;SDS011;54904;54.350;18.664;2023-03-23T11:44:54;2.33;;;1.77;;
18320;SDS011;54904;54.350;18.664;2023-03-23T11:47:49;2.47;;;1.57;;
18320;SDS011;54904;54.350;18.664;2023-03-23T11:50:23;1.73;;;1.63;;
18320;SDS011;54904;54.350;18.664;2023-03-23T11:52:58;2.00;;;1.90;;
18320;SDS011;54904;54.350;18.664;2023-03-23T11:55:31;1.70;;;1.60;;
18320;SDS011;54904;54.350;18.664;2023-03-23T11:58:06;1.60;;;1.50;;
18320;SDS011;54904;54.350;18.664;2023-03-23T12:00:40;2.97;;;1.60;;
18320;SDS011;54904;54.350;18.664;2023-03-23T12:03:31;3.00;;;1.50;;
18320;SDS011;54904;54.350;18.664;2023-03-23T12:06:15;2.83;;;1.50;;
18320;SDS011;54904;54.350;18.664;2023-03-23T12:08:58;1.23;;;1.10;;
18320;SDS011;54904;54.350;18.664;2023-03-23T12:12:04;1.80;;;1.37;;
18320;SDS011;54904;54.350;18.664;2023-03-23T12:14:46;1.50;;;1.40;;
18320;SDS011;54904;54.350;18.664;2023-03-23T12:17:23;1.00;;;1.00;;
18320;SDS011;54904;54.350;18.664;2023-03-23T12:20:03;1.17;;;1.10;;
18320;SDS011;54904;54.350;18.664;2023-03-23T12:22:47;1.60;;;1.50;;
18320;SDS011;54904;54.350;18.664;2023-03-23T12:25:42;1.00;;;1.00;;
18320;SDS011;54904;54.350;18.664;2023-03-23T12:28:40;1.47;;;1.37;;
18320;SDS011;54904;54.350;18.664;2023-03-23T12:31:27;1.50;;;1.40;;
18320;SDS011;54904;54.350;18.664;2023-03-23T12:34:04;1.40;;;1.30;;
18320;SDS011;54904;54.350;18.664;2023-03-23T12:36:44;1.33;;;1.23;;
18320;SDS011;54904;54.350;18.664;2023-03-23T12:42:26;1.00;;;1.00;;
18320;SDS011;54904;54.350;18.664;2023-03-23T12:45:01;1.60;;;1.20;;
18320;SDS011;54904;54.350;18.664;2023-03-23T12:47:35;1.07;;;1.03;;
18320;SDS011;54904;54.350;18.664;2023-03-23T12:50:13;1.00;;;1.00;;
18320;SDS011;54904;54.350;18.664;2023-03-23T12:52:47;1.03;;;1.00;;
18320;SDS011;54904;54.350;18.664;2023-03-23T12:55:27;0.90;;;0.90;;
18320;SDS011;54904;54.350;18.664;2023-03-23T12:58:02;1.30;;;1.20;;
18320;SDS011;54904;54.350;18.664;2023-03-23T13:00:33;1.93;;;1.27;;
18320;SDS011;54904;54.350;18.664;2023-03-23T13:03:20;3.47;;;0.90;;
18320;SDS011;54904;54.350;18.664;2023-03-23T13:05:54;1.83;;;1.20;;
18320;SDS011;54904;54.350;18.664;2023-03-23T13:08:28;1.83;;;1.03;;
18320;SDS011;54904;54.350;18.664;2023-03-23T13:10:59;1.00;;;1.00;;
18320;SDS011;54904;54.350;18.664;2023-03-23T13:13:39;2.17;;;1.50;;
18320;SDS011;54904;54.350;18.664;2023-03-23T13:16:12;1.47;;;1.37;;
18320;SDS011;54904;54.350;18.664;2023-03-23T13:18:47;1.30;;;1.20;;
18320;SDS011;54904;54.350;18.664;2023-03-23T13:21:27;1.20;;;1.10;;
18320;SDS011;54904;54.350;18.664;2023-03-23T13:23:58;1.27;;;1.20;;
18320;SDS011;54904;54.350;18.664;2023-03-23T13:26:42;1.13;;;1.13;;
18320;SDS011;54904;54.350;18.664;2023-03-23T13:29:13;1.57;;;1.33;;
18320;SDS011;54904;54.350;18.664;2023-03-23T13:31:47;1.30;;;1.20;;
18320;SDS011;54904;54.350;18.664;2023-03-23T13:34:15;1.23;;;1.07;;
18320;SDS011;54904;54.350;18.664;2023-03-23T13:36:53;1.33;;;1.23;;
18320;SDS011;54904;54.350;18.664;2023-03-23T13:39:23;5.07;;;1.20;;
18320;SDS011;54904;54.350;18.664;2023-03-23T13:42:00;1.20;;;1.10;;
18320;SDS011;54904;54.350;18.664;2023-03-23T13:44:41;2.00;;;1.17;;
18320;SDS011;54904;54.350;18.664;2023-03-23T13:47:21;1.57;;;1.00;;
18320;SDS011;54904;54.350;18.664;2023-03-23T13:49:56;2.97;;;1.20;;
18320;SDS011;54904;54.350;18.664;2023-03-23T13:52:36;1.97;;;1.47;;
18320;SDS011;54904;54.350;18.664;2023-03-23T13:57:58;1.07;;;1.03;;
18320;SDS011;54904;54.350;18.664;2023-03-23T14:00:47;1.60;;;1.43;;
18320;SDS011;54904;54.350;18.664;2023-03-23T14:03:17;2.13;;;1.50;;
18320;SDS011;54904;54.350;18.664;2023-03-23T14:05:48;1.33;;;1.20;;
18320;SDS011;54904;54.350;18.664;2023-03-23T14:08:24;1.80;;;1.40;;
18320;SDS011;54904;54.350;18.664;2023-03-23T14:11:09;2.33;;;1.17;;
18320;SDS011;54904;54.350;18.664;2023-03-23T14:13:41;1.30;;;1.00;;
18320;SDS011;54904;54.350;18.664;2023-03-23T14:16:16;1.33;;;1.10;;
18320;SDS011;54904;54.350;18.664;2023-03-23T14:18:50;0.90;;;0.90;;
18320;SDS011;54904;54.350;18.664;2023-03-23T14:21:23;1.30;;;1.20;;
18320;SDS011;54904;54.350;18.664;2023-03-23T14:24:08;0.90;;;0.90;;
18320;SDS011;54904;54.350;18.664;2023-03-23T14:26:39;1.43;;;1.20;;
18320;SDS011;54904;54.350;18.664;2023-03-23T14:29:08;1.83;;;1.43;;
18320;SDS011;54904;54.350;18.664;2023-03-23T14:31:37;1.03;;;1.03;;
18320;SDS011;54904;54.350;18.664;2023-03-23T14:34:10;2.83;;;1.10;;
18320;SDS011;54904;54.350;18.664;2023-03-23T14:36:40;1.20;;;1.10;;
18320;SDS011;54904;54.350;18.664;2023-03-23T14:39:16;1.13;;;1.03;;
18320;SDS011;54904;54.350;18.664;2023-03-23T14:41:47;1.57;;;1.30;;
18320;SDS011;54904;54.350;18.664;2023-03-23T14:44:15;1.40;;;1.30;;
18320;SDS011;54904;54.350;18.664;2023-03-23T14:46:44;1.20;;;1.10;;
18320;SDS011;54904;54.350;18.664;2023-03-23T14:49:17;1.20;;;1.10;;
18320;SDS011;54904;54.350;18.664;2023-03-23T14:52:01;2.37;;;1.80;;
18320;SDS011;54904;54.350;18.664;2023-03-23T14:54:32;1.50;;;1.40;;
18320;SDS011;54904;54.350;18.664;2023-03-23T14:57:02;1.30;;;1.20;;
18320;SDS011;54904;54.350;18.664;2023-03-23T14:59:39;2.90;;;1.40;;
18320;SDS011;54904;54.350;18.664;2023-03-23T15:02:10;1.43;;;1.10;;
18320;SDS011;54904;54.350;18.664;2023-03-23T15:04:41;2.67;;;1.33;;
18320;SDS011;54904;54.350;18.664;2023-03-23T15:07:11;1.33;;;1.20;;
18320;SDS011;54904;54.350;18.664;2023-03-23T15:09:44;2.00;;;1.57;;
18320;SDS011;54904;54.350;18.664;2023-03-23T15:12:18;2.50;;;1.70;;
18320;SDS011;54904;54.350;18.664;2023-03-23T15:14:49;2.00;;;1.23;;
18320;SDS011;54904;54.350;18.664;2023-03-23T15:17:20;1.40;;;1.30;;
18320;SDS011;54904;54.350;18.664;2023-03-23T15:19:50;2.70;;;1.50;;
18320;SDS011;54904;54.350;18.664;2023-03-23T15:22:19;1.27;;;1.17;;